sensor_id;sensor_type;location;lat;lon;timestamp;pressure;altitude;pressure_sealevel;temperature;humidity
10127;BME280;13080;42.608;23.362;2023-03-11T00:00:50;153200.81;;;8.30;100.00
10127;BME280;13080;42.608;23.362;2023-03-11T00:03:19;153198.19;;;8.29;100.00
10127;BME280;13080;42.608;23.362;2023-03-11T00:05:49;153190.44;;;8.26;100.00
10127;BME280;13080;42.608;23.362;2023-03-11T00:08:19;153204.66;;;8.31;100.00
10127;BME280;13080;42.608;23.362;2023-03-11T00:10:47;153211.19;;;8.34;100.00
10127;BME280;13080;42.608;23.362;2023-03-11T00:13:16;153206.00;;;8.32;100.00
10127;BME280;13080;42.608;23.362;2023-03-11T00:15:45;153182.63;;;8.23;100.00
10127;BME280;13080;42.608;23.362;2023-03-11T00:18:12;153204.66;;;8.31;100.00
10127;BME280;13080;42.608;23.362;2023-03-11T00:20:42;153185.25;;;8.24;100.00
10127;BME280;13080;42.608;23.362;2023-03-11T00:23:11;153139.88;;;8.06;100.00
10127;BME280;13080;42.608;23.362;2023-03-11T00:25:39;153084.13;;;7.84;100.00
10127;BME280;13080;42.608;23.362;2023-03-11T00:28:06;153089.31;;;7.86;100.00
10127;BME280;13080;42.608;23.362;2023-03-11T00:30:34;153041.38;;;7.67;100.00
10127;BME280;13080;42.608;23.362;2023-03-11T00:33:01;153032.28;;;7.63;100.00
10127;BME280;13080;42.608;23.362;2023-03-11T00:35:30;153020.63;;;7.59;100.00
10127;BME280;13080;42.608;23.362;2023-03-11T00:38:02;153025.81;;;7.61;100.00
10127;BME280;13080;42.608;23.362;2023-03-11T00:40:30;153002.50;;;7.52;100.00
10127;BME280;13080;42.608;23.362;2023-03-11T00:42:57;152992.13;;;7.47;100.00
10127;BME280;13080;42.608;23.362;2023-03-11T00:45:25;152999.88;;;7.50;100.00
10127;BME280;13080;42.608;23.362;2023-03-11T00:47:52;152985.66;;;7.45;100.00
10127;BME280;13080;42.608;23.362;2023-03-11T00:50:21;152972.66;;;7.40;100.00
10127;BME280;13080;42.608;23.362;2023-03-11T00:52:49;152963.63;;;7.36;100.00
10127;BME280;13080;42.608;23.362;2023-03-11T00:55:19;152975.28;;;7.41;100.00
10127;BME280;13080;42.608;23.362;2023-03-11T00:57:46;152967.53;;;7.38;100.00
10127;BME280;13080;42.608;23.362;2023-03-11T01:00:14;152971.38;;;7.39;100.00
10127;BME280;13080;42.608;23.362;2023-03-11T01:02:41;152964.91;;;7.37;100.00
10127;BME280;13080;42.608;23.362;2023-03-11T01:05:08;152968.81;;;7.38;100.00
10127;BME280;13080;42.608;23.362;2023-03-11T01:07:36;152974.00;;;7.40;100.00
10127;BME280;13080;42.608;23.362;2023-03-11T01:10:05;152976.56;;;7.41;100.00
10127;BME280;13080;42.608;23.362;2023-03-11T01:12:33;152974.00;;;7.40;100.00
10127;BME280;13080;42.608;23.362;2023-03-11T01:15:00;152989.50;;;7.46;100.00
10127;BME280;13080;42.608;23.362;2023-03-11T01:17:27;152975.28;;;7.41;100.00
10127;BME280;13080;42.608;23.362;2023-03-11T01:19:54;152948.06;;;7.30;100.00
10127;BME280;13080;42.608;23.362;2023-03-11T01:22:22;152922.19;;;7.20;100.00
10127;BME280;13080;42.608;23.362;2023-03-11T01:24:48;152919.56;;;7.19;100.00
10127;BME280;13080;42.608;23.362;2023-03-11T01:27:15;152915.66;;;7.17;100.00
10127;BME280;13080;42.608;23.362;2023-03-11T01:29:43;152906.63;;;7.14;100.00
10127;BME280;13080;42.608;23.362;2023-03-11T01:32:10;152906.63;;;7.14;100.00
10127;BME280;13080;42.608;23.362;2023-03-11T01:34:37;152907.91;;;7.14;100.00
10127;BME280;13080;42.608;23.362;2023-03-11T01:37:04;152924.75;;;7.21;100.00
10127;BME280;13080;42.608;23.362;2023-03-11T01:39:30;152917.00;;;7.18;100.00
10127;BME280;13080;42.608;23.362;2023-03-11T01:41:57;152929.94;;;7.23;100.00
10127;BME280;13080;42.608;23.362;2023-03-11T01:44:24;152917.00;;;7.18;100.00
10127;BME280;13080;42.608;23.362;2023-03-11T01:49:56;152905.34;;;7.13;100.00
10127;BME280;13080;42.608;23.362;2023-03-11T01:52:23;152900.16;;;7.11;100.00
10127;BME280;13080;42.608;23.362;2023-03-11T01:54:50;152904.03;;;7.13;100.00
10127;BME280;13080;42.608;23.362;2023-03-11T01:57:17;152885.88;;;7.05;100.00
10127;BME280;13080;42.608;23.362;2023-03-11T01:59:48;152878.13;;;7.02;100.00
10127;BME280;13080;42.608;23.362;2023-03-11T02:02:18;152891.06;;;7.07;100.00
10127;BME280;13080;42.608;23.362;2023-03-11T02:04:47;152884.59;;;7.05;100.00
10127;BME280;13080;42.608;23.362;2023-03-11T02:07:16;152879.41;;;7.03;100.00
10127;BME280;13080;42.608;23.362;2023-03-11T02:09:43;152919.56;;;7.19;100.00
10127;BME280;13080;42.608;23.362;2023-03-11T02:12:12;152940.31;;;7.27;100.00
10127;BME280;13080;42.608;23.362;2023-03-11T02:14:42;152893.69;;;7.08;100.00
10127;BME280;13080;42.608;23.362;2023-03-11T02:17:10;152863.88;;;6.97;100.00
10127;BME280;13080;42.608;23.362;2023-03-11T02:19:50;152893.69;;;7.08;100.00
10127;BME280;13080;42.608;23.362;2023-03-11T02:22:23;152883.31;;;7.04;100.00
10127;BME280;13080;42.608;23.362;2023-03-11T02:24:56;152867.78;;;6.98;100.00
10127;BME280;13080;42.608;23.362;2023-03-11T02:27:30;152848.34;;;6.91;100.00
10127;BME280;13080;42.608;23.362;2023-03-11T02:29:59;152840.56;;;6.87;100.00
10127;BME280;13080;42.608;23.362;2023-03-11T02:32:26;152817.25;;;6.78;100.00
10127;BME280;13080;42.608;23.362;2023-03-11T02:34:53;152810.78;;;6.76;100.00
10127;BME280;13080;42.608;23.362;2023-03-11T02:37:20;152804.31;;;6.73;100.00
10127;BME280;13080;42.608;23.362;2023-03-11T02:39:49;152812.06;;;6.76;100.00
10127;BME280;13080;42.608;23.362;2023-03-11T02:42:18;152810.78;;;6.76;100.00
10127;BME280;13080;42.608;23.362;2023-03-11T02:44:56;152818.53;;;6.79;100.00
10127;BME280;13080;42.608;23.362;2023-03-11T02:47:25;152826.34;;;6.82;100.00
10127;BME280;13080;42.608;23.362;2023-03-11T02:49:53;152818.53;;;6.79;100.00
10127;BME280;13080;42.608;23.362;2023-03-11T02:52:22;152795.22;;;6.70;100.00
10127;BME280;13080;42.608;23.362;2023-03-11T02:54:50;152796.53;;;6.70;100.00
10127;BME280;13080;42.608;23.362;2023-03-11T02:57:17;152803.03;;;6.73;100.00
10127;BME280;13080;42.608;23.362;2023-03-11T02:59:43;152801.69;;;6.72;100.00
10127;BME280;13080;42.608;23.362;2023-03-11T03:02:11;152795.22;;;6.70;100.00
10127;BME280;13080;42.608;23.362;2023-03-11T03:04:38;152792.66;;;6.69;100.00
10127;BME280;13080;42.608;23.362;2023-03-11T03:07:05;152790.06;;;6.68;100.00
10127;BME280;13080;42.608;23.362;2023-03-11T03:09:32;152784.88;;;6.65;100.00
10127;BME280;13080;42.608;23.362;2023-03-11T03:12:00;152806.88;;;6.74;100.00
10127;BME280;13080;42.608;23.362;2023-03-11T03:14:27;152818.53;;;6.79;100.00
10127;BME280;13080;42.608;23.362;2023-03-11T03:16:54;152850.94;;;6.92;100.00
10127;BME280;13080;42.608;23.362;2023-03-11T03:19:22;152856.13;;;6.94;100.00
10127;BME280;13080;42.608;23.362;2023-03-11T03:21:49;152838.00;;;6.86;100.00
10127;BME280;13080;42.608;23.362;2023-03-11T03:24:15;152841.84;;;6.88;100.00
10127;BME280;13080;42.608;23.362;2023-03-11T03:26:42;152823.72;;;6.81;100.00
10127;BME280;13080;42.608;23.362;2023-03-11T03:29:09;152838.00;;;6.86;100.00
10127;BME280;13080;42.608;23.362;2023-03-11T03:31:37;152856.13;;;6.94;100.00
10127;BME280;13080;42.608;23.362;2023-03-11T03:34:04;152883.31;;;7.04;100.00
10127;BME280;13080;42.608;23.362;2023-03-11T03:36:32;152907.91;;;7.14;100.00
10127;BME280;13080;42.608;23.362;2023-03-11T03:38:58;152937.69;;;7.26;100.00
10127;BME280;13080;42.608;23.362;2023-03-11T03:41:26;152949.34;;;7.31;100.00
10127;BME280;13080;42.608;23.362;2023-03-11T03:43:53;152981.75;;;7.43;96.84
10127;BME280;13080;42.608;23.362;2023-03-11T03:46:20;152999.88;;;7.50;97.61
10127;BME280;13080;42.608;23.362;2023-03-11T03:48:47;153001.22;;;7.51;97.95
10127;BME280;13080;42.608;23.362;2023-03-11T03:51:14;152992.13;;;7.47;99.98
10127;BME280;13080;42.608;23.362;2023-03-11T03:53:42;152989.50;;;7.46;97.86
10127;BME280;13080;42.608;23.362;2023-03-11T03:56:13;152994.69;;;7.48;98.48
10127;BME280;13080;42.608;23.362;2023-03-11T03:58:40;152990.84;;;7.47;98.29
10127;BME280;13080;42.608;23.362;2023-03-11T04:01:08;152997.31;;;7.49;97.77
10127;BME280;13080;42.608;23.362;2023-03-11T04:03:35;152998.59;;;7.50;96.32
10127;BME280;13080;42.608;23.362;2023-03-11T04:06:08;153014.16;;;7.56;97.25
10127;BME280;13080;42.608;23.362;2023-03-11T04:08:36;153020.63;;;7.59;95.98
10127;BME280;13080;42.608;23.362;2023-03-11T04:11:04;152999.88;;;7.50;95.78
10127;BME280;13080;42.608;23.362;2023-03-11T04:13:31;153002.50;;;7.52;94.51
10127;BME280;13080;42.608;23.362;2023-03-11T04:15:58;152992.13;;;7.47;96.07
10127;BME280;13080;42.608;23.362;2023-03-11T04:18:25;152999.88;;;7.50;98.03
10127;BME280;13080;42.608;23.362;2023-03-11T04:20:51;152996.03;;;7.49;94.72
10127;BME280;13080;42.608;23.362;2023-03-11T04:23:18;152996.03;;;7.49;97.11
10127;BME280;13080;42.608;23.362;2023-03-11T04:25:45;152964.91;;;7.37;97.93
10127;BME280;13080;42.608;23.362;2023-03-11T04:28:13;153006.34;;;7.53;94.15
10127;BME280;13080;42.608;23.362;2023-03-11T04:30:40;153010.25;;;7.55;93.09
10127;BME280;13080;42.608;23.362;2023-03-11T04:33:07;153002.50;;;7.52;93.01
10127;BME280;13080;42.608;23.362;2023-03-11T04:35:34;153002.50;;;7.52;92.42
10127;BME280;13080;42.608;23.362;2023-03-11T04:38:03;153015.44;;;7.57;94.07
10127;BME280;13080;42.608;23.362;2023-03-11T04:40:30;152992.13;;;7.47;94.38
10127;BME280;13080;42.608;23.362;2023-03-11T04:42:56;152996.03;;;7.49;93.26
10127;BME280;13080;42.608;23.362;2023-03-11T04:45:24;153020.63;;;7.59;92.80
10127;BME280;13080;42.608;23.362;2023-03-11T04:47:51;153014.16;;;7.56;91.65
10127;BME280;13080;42.608;23.362;2023-03-11T04:50:18;153029.72;;;7.62;91.20
10127;BME280;13080;42.608;23.362;2023-03-11T04:52:45;153002.50;;;7.52;92.44
10127;BME280;13080;42.608;23.362;2023-03-11T04:55:13;152997.31;;;7.49;93.06
10127;BME280;13080;42.608;23.362;2023-03-11T04:57:40;153015.44;;;7.57;92.61
10127;BME280;13080;42.608;23.362;2023-03-11T05:00:09;152990.84;;;7.47;93.71
10127;BME280;13080;42.608;23.362;2023-03-11T05:02:38;153010.25;;;7.55;92.65
10127;BME280;13080;42.608;23.362;2023-03-11T05:05:06;153010.25;;;7.55;95.89
10127;BME280;13080;42.608;23.362;2023-03-11T05:07:33;153011.53;;;7.55;92.48
10127;BME280;13080;42.608;23.362;2023-03-11T05:10:01;153015.44;;;7.57;94.28
10127;BME280;13080;42.608;23.362;2023-03-11T05:12:27;153019.34;;;7.58;93.26
10127;BME280;13080;42.608;23.362;2023-03-11T05:14:54;153033.59;;;7.64;92.55
10127;BME280;13080;42.608;23.362;2023-03-11T05:17:21;153053.03;;;7.72;90.07
10127;BME280;13080;42.608;23.362;2023-03-11T05:19:50;153054.34;;;7.72;89.92
10127;BME280;13080;42.608;23.362;2023-03-11T05:22:18;153059.53;;;7.74;89.61
10127;BME280;13080;42.608;23.362;2023-03-11T05:24:45;153069.91;;;7.78;88.94
10127;BME280;13080;42.608;23.362;2023-03-11T05:27:12;153076.38;;;7.81;87.40
10127;BME280;13080;42.608;23.362;2023-03-11T05:29:42;153093.22;;;7.87;88.45
10127;BME280;13080;42.608;23.362;2023-03-11T05:32:09;153102.25;;;7.91;88.38
10127;BME280;13080;42.608;23.362;2023-03-11T05:34:35;153123.03;;;7.99;86.82
10127;BME280;13080;42.608;23.362;2023-03-11T05:37:04;153119.13;;;7.98;86.60
10127;BME280;13080;42.608;23.362;2023-03-11T05:39:31;153146.34;;;8.08;87.08
10127;BME280;13080;42.608;23.362;2023-03-11T05:41:57;153151.53;;;8.10;85.05
10127;BME280;13080;42.608;23.362;2023-03-11T05:44:24;153156.72;;;8.12;86.40
10127;BME280;13080;42.608;23.362;2023-03-11T05:46:51;153155.44;;;8.12;86.08
10127;BME280;13080;42.608;23.362;2023-03-11T05:49:18;153164.47;;;8.16;85.58
10127;BME280;13080;42.608;23.362;2023-03-11T05:51:45;153189.16;;;8.25;86.62
10127;BME280;13080;42.608;23.362;2023-03-11T05:54:14;153200.81;;;8.30;85.23
10127;BME280;13080;42.608;23.362;2023-03-11T05:56:41;153208.56;;;8.33;86.35
10127;BME280;13080;42.608;23.362;2023-03-11T05:59:08;153222.88;;;8.39;84.23
10127;BME280;13080;42.608;23.362;2023-03-11T06:01:35;153222.88;;;8.39;86.54
10127;BME280;13080;42.608;23.362;2023-03-11T06:04:02;153242.34;;;8.46;87.91
10127;BME280;13080;42.608;23.362;2023-03-11T06:06:30;153230.66;;;8.42;86.38
10127;BME280;13080;42.608;23.362;2023-03-11T06:08:57;153224.16;;;8.39;87.52
10127;BME280;13080;42.608;23.362;2023-03-11T06:11:26;153226.78;;;8.40;87.57
10127;BME280;13080;42.608;23.362;2023-03-11T06:13:53;153230.66;;;8.42;87.58
10127;BME280;13080;42.608;23.362;2023-03-11T06:16:20;153222.88;;;8.39;88.38
10127;BME280;13080;42.608;23.362;2023-03-11T06:18:47;153238.44;;;8.45;88.54
10127;BME280;13080;42.608;23.362;2023-03-11T06:21:16;153251.44;;;8.50;86.94
10127;BME280;13080;42.608;23.362;2023-03-11T06:23:43;153247.53;;;8.48;88.45
10127;BME280;13080;42.608;23.362;2023-03-11T06:26:11;153241.06;;;8.46;89.53
10127;BME280;13080;42.608;23.362;2023-03-11T06:28:42;153235.88;;;8.44;88.57
10127;BME280;13080;42.608;23.362;2023-03-11T06:31:10;153225.44;;;8.40;86.93
10127;BME280;13080;42.608;23.362;2023-03-11T06:33:37;153230.66;;;8.42;88.18
10127;BME280;13080;42.608;23.362;2023-03-11T06:36:05;153254.00;;;8.51;88.07
10127;BME280;13080;42.608;23.362;2023-03-11T06:38:33;153263.09;;;8.55;84.95
10127;BME280;13080;42.608;23.362;2023-03-11T06:41:00;153268.28;;;8.57;84.59
10127;BME280;13080;42.608;23.362;2023-03-11T06:43:28;153259.19;;;8.53;83.38
10127;BME280;13080;42.608;23.362;2023-03-11T06:45:57;153257.91;;;8.52;83.28
10127;BME280;13080;42.608;23.362;2023-03-11T06:48:24;153276.06;;;8.60;84.67
10127;BME280;13080;42.608;23.362;2023-03-11T06:50:55;153291.63;;;8.66;84.28
10127;BME280;13080;42.608;23.362;2023-03-11T06:53:22;153296.81;;;8.68;83.96
10127;BME280;13080;42.608;23.362;2023-03-11T06:55:59;153309.78;;;8.73;84.98
10127;BME280;13080;42.608;23.362;2023-03-11T06:58:27;153312.34;;;8.74;85.23
10127;BME280;13080;42.608;23.362;2023-03-11T07:01:00;153329.22;;;8.81;83.62
10127;BME280;13080;42.608;23.362;2023-03-11T07:03:27;153344.78;;;8.87;83.81
10127;BME280;13080;42.608;23.362;2023-03-11T07:05:54;153373.31;;;8.98;79.45
10127;BME280;13080;42.608;23.362;2023-03-11T07:08:21;153387.63;;;9.04;79.97
10127;BME280;13080;42.608;23.362;2023-03-11T07:10:59;153410.97;;;9.13;79.63
10127;BME280;13080;42.608;23.362;2023-03-11T07:13:26;153436.88;;;9.23;80.24
10127;BME280;13080;42.608;23.362;2023-03-11T07:16:01;153474.53;;;9.38;79.18
10127;BME280;13080;42.608;23.362;2023-03-11T07:18:28;153496.59;;;9.47;79.52
10127;BME280;13080;42.608;23.362;2023-03-11T07:20:55;153484.91;;;9.42;82.28
10127;BME280;13080;42.608;23.362;2023-03-11T07:23:22;153522.53;;;9.57;81.07
10127;BME280;13080;42.608;23.362;2023-03-11T07:25:49;153517.34;;;9.55;80.54
10127;BME280;13080;42.608;23.362;2023-03-11T07:28:17;153551.06;;;9.68;79.86
10127;BME280;13080;42.608;23.362;2023-03-11T07:30:44;153538.13;;;9.63;76.54
10127;BME280;13080;42.608;23.362;2023-03-11T07:33:14;153595.22;;;9.86;76.02
10127;BME280;13080;42.608;23.362;2023-03-11T07:35:41;153614.72;;;9.93;72.07
10127;BME280;13080;42.608;23.362;2023-03-11T07:38:08;153643.28;;;10.05;73.21
10127;BME280;13080;42.608;23.362;2023-03-11T07:40:35;153652.34;;;10.08;73.35
10127;BME280;13080;42.608;23.362;2023-03-11T07:43:01;153644.56;;;10.05;71.59
10127;BME280;13080;42.608;23.362;2023-03-11T07:45:28;153652.34;;;10.08;70.36
10127;BME280;13080;42.608;23.362;2023-03-11T07:47:55;153677.03;;;10.18;71.49
10127;BME280;13080;42.608;23.362;2023-03-11T07:50:23;153634.16;;;10.01;71.05
10127;BME280;13080;42.608;23.362;2023-03-11T07:52:50;153619.91;;;9.95;70.71
10127;BME280;13080;42.608;23.362;2023-03-11T07:55:17;153625.06;;;9.97;71.92
10127;BME280;13080;42.608;23.362;2023-03-11T07:57:46;153691.28;;;10.24;69.20
10127;BME280;13080;42.608;23.362;2023-03-11T08:00:14;153736.78;;;10.42;65.51
10127;BME280;13080;42.608;23.362;2023-03-11T08:02:41;153773.13;;;10.56;67.26
10127;BME280;13080;42.608;23.362;2023-03-11T08:05:09;153795.22;;;10.65;65.76
10127;BME280;13080;42.608;23.362;2023-03-11T08:07:37;153806.91;;;10.69;67.55
10127;BME280;13080;42.608;23.362;2023-03-11T08:10:04;153817.31;;;10.73;63.52
10127;BME280;13080;42.608;23.362;2023-03-11T08:12:31;153845.88;;;10.85;67.37
10127;BME280;13080;42.608;23.362;2023-03-11T08:14:58;153860.19;;;10.90;62.88
10127;BME280;13080;42.608;23.362;2023-03-11T08:17:25;153883.56;;;10.99;62.41
10127;BME280;13080;42.608;23.362;2023-03-11T08:19:52;153884.88;;;11.00;62.96
10127;BME280;13080;42.608;23.362;2023-03-11T08:22:19;153888.78;;;11.01;61.38
10127;BME280;13080;42.608;23.362;2023-03-11T08:24:50;153890.06;;;11.02;64.15
10127;BME280;13080;42.608;23.362;2023-03-11T08:27:17;153921.28;;;11.14;64.64
10127;BME280;13080;42.608;23.362;2023-03-11T08:29:44;153951.16;;;11.26;62.75
10127;BME280;13080;42.608;23.362;2023-03-11T08:32:11;153949.84;;;11.26;62.62
10127;BME280;13080;42.608;23.362;2023-03-11T08:34:38;153958.94;;;11.29;62.72
10127;BME280;13080;42.608;23.362;2023-03-11T08:37:04;153951.16;;;11.26;59.80
10127;BME280;13080;42.608;23.362;2023-03-11T08:39:31;153925.13;;;11.16;62.06
10127;BME280;13080;42.608;23.362;2023-03-11T08:42:00;153908.25;;;11.09;62.26
10127;BME280;13080;42.608;23.362;2023-03-11T08:44:27;153936.84;;;11.20;61.87
10127;BME280;13080;42.608;23.362;2023-03-11T08:46:54;153953.72;;;11.27;62.03
10127;BME280;13080;42.608;23.362;2023-03-11T08:49:20;153971.91;;;11.34;61.94
10127;BME280;13080;42.608;23.362;2023-03-11T08:51:47;153990.13;;;11.41;62.39
10127;BME280;13080;42.608;23.362;2023-03-11T08:54:14;154036.91;;;11.60;59.88
10127;BME280;13080;42.608;23.362;2023-03-11T08:56:41;154074.59;;;11.75;61.30
10127;BME280;13080;42.608;23.362;2023-03-11T08:59:09;154096.69;;;11.83;57.96
10127;BME280;13080;42.608;23.362;2023-03-11T09:01:35;154066.81;;;11.72;60.35
10127;BME280;13080;42.608;23.362;2023-03-11T09:04:02;154096.69;;;11.83;60.02
10127;BME280;13080;42.608;23.362;2023-03-11T09:06:29;154062.88;;;11.70;58.60
10127;BME280;13080;42.608;23.362;2023-03-11T09:08:56;154042.13;;;11.62;59.86
10127;BME280;13080;42.608;23.362;2023-03-11T09:11:23;154070.72;;;11.73;58.51
10127;BME280;13080;42.608;23.362;2023-03-11T09:13:50;154133.16;;;11.98;56.57
10127;BME280;13080;42.608;23.362;2023-03-11T09:16:20;154185.16;;;12.18;57.89
10127;BME280;13080;42.608;23.362;2023-03-11T09:18:47;154208.56;;;12.27;55.92
10127;BME280;13080;42.608;23.362;2023-03-11T09:21:14;154187.75;;;12.19;58.32
10127;BME280;13080;42.608;23.362;2023-03-11T09:23:41;154200.78;;;12.24;58.04
10127;BME280;13080;42.608;23.362;2023-03-11T09:26:07;154173.47;;;12.14;60.20
10127;BME280;13080;42.608;23.362;2023-03-11T09:28:34;154108.44;;;11.88;65.36
10127;BME280;13080;42.608;23.362;2023-03-11T09:31:01;154047.31;;;11.64;64.87
10127;BME280;13080;42.608;23.362;2023-03-11T09:33:29;153986.22;;;11.40;66.04
10127;BME280;13080;42.608;23.362;2023-03-11T09:35:57;153945.94;;;11.24;64.67
10127;BME280;13080;42.608;23.362;2023-03-11T09:38:24;153987.50;;;11.40;60.53
10127;BME280;13080;42.608;23.362;2023-03-11T09:40:57;154043.41;;;11.62;59.19
10127;BME280;13080;42.608;23.362;2023-03-11T09:43:34;154122.75;;;11.94;57.80
10127;BME280;13080;42.608;23.362;2023-03-11T09:46:22;154148.78;;;12.04;55.86
10127;BME280;13080;42.608;23.362;2023-03-11T09:48:55;154178.69;;;12.16;57.37
10127;BME280;13080;42.608;23.362;2023-03-11T09:51:28;154221.56;;;12.33;55.23
10127;BME280;13080;42.608;23.362;2023-03-11T09:54:02;154228.06;;;12.35;54.72
10127;BME280;13080;42.608;23.362;2023-03-11T09:56:30;154263.22;;;12.49;55.37
10127;BME280;13080;42.608;23.362;2023-03-11T09:59:02;154306.13;;;12.66;56.30
10127;BME280;13080;42.608;23.362;2023-03-11T10:01:32;154282.69;;;12.57;53.01
10127;BME280;13080;42.608;23.362;2023-03-11T10:04:06;154298.31;;;12.63;55.16
10127;BME280;13080;42.608;23.362;2023-03-11T10:06:34;154320.44;;;12.72;55.07
10127;BME280;13080;42.608;23.362;2023-03-11T10:09:06;154277.50;;;12.55;55.68
10127;BME280;13080;42.608;23.362;2023-03-11T10:11:50;154151.38;;;12.05;55.45
10127;BME280;13080;42.608;23.362;2023-03-11T10:14:39;154116.25;;;11.91;56.90
10127;BME280;13080;42.608;23.362;2023-03-11T10:17:14;154179.97;;;12.16;56.47
10127;BME280;13080;42.608;23.362;2023-03-11T10:19:49;154224.19;;;12.34;56.73
10127;BME280;13080;42.608;23.362;2023-03-11T10:22:22;154220.28;;;12.32;56.30
10127;BME280;13080;42.608;23.362;2023-03-11T10:25:01;154224.19;;;12.34;55.69
10127;BME280;13080;42.608;23.362;2023-03-11T10:27:31;154226.78;;;12.35;56.58
10127;BME280;13080;42.608;23.362;2023-03-11T10:30:05;154203.38;;;12.25;57.31
10127;BME280;13080;42.608;23.362;2023-03-11T10:32:39;154190.38;;;12.20;57.45
10127;BME280;13080;42.608;23.362;2023-03-11T10:35:15;154267.09;;;12.51;57.93
10127;BME280;13080;42.608;23.362;2023-03-11T10:37:47;154328.22;;;12.75;57.41
10127;BME280;13080;42.608;23.362;2023-03-11T10:40:23;154352.94;;;12.84;56.80
10127;BME280;13080;42.608;23.362;2023-03-11T10:42:53;154337.34;;;12.78;54.94
10127;BME280;13080;42.608;23.362;2023-03-11T10:45:21;154304.81;;;12.65;54.43
10127;BME280;13080;42.608;23.362;2023-03-11T10:47:48;154319.09;;;12.71;55.50
10127;BME280;13080;42.608;23.362;2023-03-11T10:50:18;154342.56;;;12.80;56.60
10127;BME280;13080;42.608;23.362;2023-03-11T10:53:04;154351.63;;;12.84;56.88
10127;BME280;13080;42.608;23.362;2023-03-11T10:55:31;154316.53;;;12.70;57.31
10127;BME280;13080;42.608;23.362;2023-03-11T10:58:04;154316.53;;;12.70;58.63
10127;BME280;13080;42.608;23.362;2023-03-11T11:00:31;154311.31;;;12.68;61.21
10127;BME280;13080;42.608;23.362;2023-03-11T11:02:59;154231.97;;;12.37;66.26
10127;BME280;13080;42.608;23.362;2023-03-11T11:05:29;154098.03;;;11.84;67.57
10127;BME280;13080;42.608;23.362;2023-03-11T11:08:06;153983.59;;;11.39;73.10
10127;BME280;13080;42.608;23.362;2023-03-11T11:10:34;153897.84;;;11.05;74.49
10127;BME280;13080;42.608;23.362;2023-03-11T11:13:15;153917.34;;;11.13;76.63
10127;BME280;13080;42.608;23.362;2023-03-11T11:15:51;153974.53;;;11.35;70.81
10127;BME280;13080;42.608;23.362;2023-03-11T11:18:21;153965.41;;;11.32;70.89
10127;BME280;13080;42.608;23.362;2023-03-11T11:20:57;153958.94;;;11.29;70.71
10127;BME280;13080;42.608;23.362;2023-03-11T11:23:38;154017.41;;;11.52;71.82
10127;BME280;13080;42.608;23.362;2023-03-11T11:26:13;153987.50;;;11.40;72.36
10127;BME280;13080;42.608;23.362;2023-03-11T11:28:41;153958.94;;;11.29;71.90
10127;BME280;13080;42.608;23.362;2023-03-11T11:31:21;153957.63;;;11.29;75.71
10127;BME280;13080;42.608;23.362;2023-03-11T11:33:50;153956.34;;;11.28;77.89
10127;BME280;13080;42.608;23.362;2023-03-11T11:36:20;153964.13;;;11.31;80.61
10127;BME280;13080;42.608;23.362;2023-03-11T11:38:51;153965.41;;;11.32;78.12
10127;BME280;13080;42.608;23.362;2023-03-11T11:41:20;153987.50;;;11.40;81.25
10127;BME280;13080;42.608;23.362;2023-03-11T11:43:49;154042.13;;;11.62;82.30
10127;BME280;13080;42.608;23.362;2023-03-11T11:46:24;154099.31;;;11.84;72.33
10127;BME280;13080;42.608;23.362;2023-03-11T11:49:02;154159.16;;;12.08;68.44
10127;BME280;13080;42.608;23.362;2023-03-11T11:51:34;154226.78;;;12.35;66.08
10127;BME280;13080;42.608;23.362;2023-03-11T11:54:12;154315.25;;;12.69;65.62
10127;BME280;13080;42.608;23.362;2023-03-11T11:56:41;154377.69;;;12.94;57.90
10127;BME280;13080;42.608;23.362;2023-03-11T11:59:14;154355.56;;;12.85;58.06
10127;BME280;13080;42.608;23.362;2023-03-11T12:01:48;154337.34;;;12.78;56.05
10127;BME280;13080;42.608;23.362;2023-03-11T12:04:33;154294.41;;;12.61;55.57
10127;BME280;13080;42.608;23.362;2023-03-11T12:07:17;154274.91;;;12.54;56.67
10127;BME280;13080;42.608;23.362;2023-03-11T12:09:51;154276.22;;;12.54;56.09
10127;BME280;13080;42.608;23.362;2023-03-11T12:12:26;154290.50;;;12.60;55.38
10127;BME280;13080;42.608;23.362;2023-03-11T12:15:00;154320.44;;;12.72;55.52
10127;BME280;13080;42.608;23.362;2023-03-11T12:17:34;154311.31;;;12.68;55.31
10127;BME280;13080;42.608;23.362;2023-03-11T12:20:07;154273.56;;;12.53;54.89
10127;BME280;13080;42.608;23.362;2023-03-11T12:22:56;154297.03;;;12.62;57.12
10127;BME280;13080;42.608;23.362;2023-03-11T12:25:32;154336.03;;;12.78;57.56
10127;BME280;13080;42.608;23.362;2023-03-11T12:28:10;154372.47;;;12.92;56.85
10127;BME280;13080;42.608;23.362;2023-03-11T12:30:42;154391.97;;;13.00;54.35
10127;BME280;13080;42.608;23.362;2023-03-11T12:33:13;154401.09;;;13.03;55.10
10127;BME280;13080;42.608;23.362;2023-03-11T12:35:47;154364.63;;;12.89;54.64
10127;BME280;13080;42.608;23.362;2023-03-11T12:38:20;154350.34;;;12.83;57.54
10127;BME280;13080;42.608;23.362;2023-03-11T12:40:57;154326.94;;;12.74;58.25
10127;BME280;13080;42.608;23.362;2023-03-11T12:46:12;154377.69;;;12.94;59.32
10127;BME280;13080;42.608;23.362;2023-03-11T12:48:42;154306.13;;;12.66;60.67
10127;BME280;13080;42.608;23.362;2023-03-11T12:51:38;154333.44;;;12.77;62.12
10127;BME280;13080;42.608;23.362;2023-03-11T12:54:28;154337.34;;;12.78;61.24
10127;BME280;13080;42.608;23.362;2023-03-11T12:56:56;154304.81;;;12.65;62.30
10127;BME280;13080;42.608;23.362;2023-03-11T13:02:55;154341.22;;;12.80;61.54